createdAt,value
2019-06-27T00:01:15.955Z,18.92
2019-06-27T00:03:42.638Z,19.30
2019-06-27T00:06:09.337Z,19.42
2019-06-27T00:08:36.276Z,19.35
2019-06-27T00:11:03.038Z,19.38
2019-06-27T00:13:29.669Z,18.89
2019-06-27T00:15:56.248Z,18.89
2019-06-27T00:18:22.891Z,18.89
2019-06-27T00:20:49.581Z,19.65
2019-06-27T00:23:16.229Z,19.91
2019-06-27T00:25:42.838Z,19.13
2019-06-27T00:28:09.420Z,18.87
2019-06-27T00:30:36.359Z,18.75
2019-06-27T00:33:04.029Z,18.89
2019-06-27T00:35:30.625Z,18.61
2019-06-27T00:37:58.228Z,18.19
2019-06-27T00:40:24.798Z,18.10
2019-06-27T00:42:51.402Z,18.25
2019-06-27T00:45:18.000Z,18.10
2019-06-27T00:47:44.576Z,18.38
2019-06-27T00:50:11.812Z,17.94
2019-06-27T00:52:39.551Z,17.53
2019-06-27T00:55:06.440Z,17.46
2019-06-27T00:57:33.030Z,17.50
2019-06-27T00:59:59.611Z,17.31
2019-06-27T01:02:26.750Z,16.77
2019-06-27T01:04:53.443Z,17.10
2019-06-27T01:07:20.272Z,17.44
2019-06-27T01:09:48.504Z,17.42
2019-06-27T01:12:15.091Z,18.07
2019-06-27T01:14:41.736Z,17.96
2019-06-27T01:17:09.526Z,17.71
2019-06-27T01:19:36.130Z,17.88
2019-06-27T01:22:02.735Z,18.51
2019-06-27T01:24:29.407Z,18.20
2019-06-27T01:26:56.253Z,18.28
2019-06-27T01:29:22.872Z,18.17
2019-06-27T01:31:49.675Z,18.13
2019-06-27T01:34:16.257Z,18.21
2019-06-27T01:36:42.923Z,17.57
2019-06-27T01:39:09.525Z,17.99
2019-06-27T01:41:36.309Z,17.95
2019-06-27T01:44:05.225Z,17.93
2019-06-27T01:46:35.929Z,17.21
2019-06-27T01:49:02.561Z,17.76
2019-06-27T01:51:29.441Z,17.71
2019-06-27T01:53:56.125Z,18.47
2019-06-27T01:56:22.708Z,17.64
2019-06-27T01:58:49.445Z,17.74
2019-06-27T02:01:16.128Z,17.89
2019-06-27T02:03:42.852Z,17.30
2019-06-27T02:06:10.456Z,17.23
2019-06-27T02:08:37.104Z,17.38
2019-06-27T02:11:03.772Z,17.52
2019-06-27T02:13:30.370Z,17.78
2019-06-27T02:15:57.414Z,17.95
2019-06-27T02:18:24.294Z,17.78
2019-06-27T02:20:50.866Z,18.30
2019-06-27T02:23:17.461Z,16.92
2019-06-27T02:25:47.068Z,17.87
2019-06-27T02:28:13.648Z,17.50
2019-06-27T02:30:41.245Z,17.99
2019-06-27T02:33:09.181Z,17.77
2019-06-27T02:35:36.255Z,18.04
2019-06-27T02:38:03.173Z,17.59
2019-06-27T02:40:30.158Z,17.30
2019-06-27T02:42:57.012Z,17.30
2019-06-27T02:45:23.688Z,17.61
2019-06-27T02:47:50.289Z,17.59
2019-06-27T02:50:17.022Z,17.45
2019-06-27T02:52:43.882Z,17.30
2019-06-27T02:55:10.837Z,17.13
2019-06-27T02:57:37.485Z,17.30
2019-06-27T03:00:04.241Z,17.30
2019-06-27T03:02:31.940Z,18.14
2019-06-27T03:04:58.515Z,18.24
2019-06-27T03:07:25.111Z,18.15
2019-06-27T03:09:51.858Z,18.13
2019-06-27T03:12:18.546Z,17.35
2019-06-27T03:14:45.176Z,17.72
2019-06-27T03:17:11.771Z,17.92
2019-06-27T03:19:38.438Z,18.25
2019-06-27T03:22:06.096Z,17.32
2019-06-27T03:24:32.837Z,17.39
2019-06-27T03:26:59.640Z,17.81
2019-06-27T03:29:26.343Z,17.72
2019-06-27T03:31:53.027Z,17.53
2019-06-27T03:34:19.859Z,18.12
2019-06-27T03:36:46.579Z,17.78
2019-06-27T03:39:13.197Z,17.99
2019-06-27T03:41:40.101Z,17.75
2019-06-27T03:44:06.755Z,17.84
2019-06-27T03:46:33.333Z,18.39
2019-06-27T03:48:59.930Z,18.69
2019-06-27T03:51:26.513Z,18.71
2019-06-27T03:53:53.111Z,18.54
2019-06-27T03:56:19.989Z,18.26
2019-06-27T03:58:46.671Z,17.68
2019-06-27T04:01:13.407Z,17.45
2019-06-27T04:03:43.019Z,17.49
2019-06-27T04:06:08.571Z,17.87
2019-06-27T04:08:35.335Z,18.17
2019-06-27T04:11:02.559Z,18.53
2019-06-27T04:13:29.188Z,19.11
2019-06-27T04:15:56.581Z,18.31
2019-06-27T04:18:23.259Z,18.91
2019-06-27T04:20:49.955Z,18.80
2019-06-27T04:23:16.781Z,18.79
2019-06-27T04:25:44.385Z,18.51
2019-06-27T04:28:11.071Z,18.74
2019-06-27T04:30:37.816Z,18.85
2019-06-27T04:33:04.428Z,18.81
2019-06-27T04:35:31.212Z,18.78
2019-06-27T04:37:57.922Z,19.53
2019-06-27T04:40:24.930Z,19.57
2019-06-27T04:42:51.597Z,18.90
2019-06-27T04:45:18.276Z,19.79
2019-06-27T04:47:44.951Z,19.92
2019-06-27T04:50:11.835Z,19.18
2019-06-27T04:52:38.714Z,19.14
2019-06-27T04:55:05.488Z,19.69
2019-06-27T04:57:32.128Z,20.00
2019-06-27T04:59:59.033Z,19.21
2019-06-27T05:02:30.242Z,19.12
2019-06-27T05:04:54.445Z,20.07
2019-06-27T05:07:21.153Z,20.15
2019-06-27T05:09:47.792Z,19.98
2019-06-27T05:12:14.674Z,20.27
2019-06-27T05:14:41.373Z,20.34
2019-06-27T05:17:08.259Z,20.64
2019-06-27T05:19:34.956Z,20.70
2019-06-27T05:22:01.831Z,20.68
2019-06-27T05:24:28.830Z,19.88
2019-06-27T05:26:55.369Z,19.83
2019-06-27T05:29:22.026Z,20.11
2019-06-27T05:31:48.729Z,19.87
2019-06-27T05:34:15.412Z,19.97
2019-06-27T05:36:42.032Z,19.91
2019-06-27T05:39:08.857Z,21.06
2019-06-27T05:41:35.447Z,20.07
2019-06-27T05:44:02.160Z,20.20
2019-06-27T05:46:28.757Z,20.41
2019-06-27T05:48:55.450Z,19.31
2019-06-27T05:51:22.120Z,20.94
2019-06-27T05:53:48.765Z,21.11
2019-06-27T05:56:15.862Z,20.70
2019-06-27T05:58:43.554Z,21.38
2019-06-27T06:01:10.362Z,20.42
2019-06-27T06:03:37.168Z,20.38
2019-06-27T06:06:03.790Z,21.25
2019-06-27T06:08:30.474Z,21.01
2019-06-27T06:10:57.073Z,21.09
2019-06-27T06:13:23.707Z,21.40
2019-06-27T06:15:50.683Z,21.45
2019-06-27T06:18:18.421Z,21.33
2019-06-27T06:20:45.157Z,21.84
2019-06-27T06:23:11.781Z,22.01
2019-06-27T06:25:38.526Z,20.97
2019-06-27T06:28:06.249Z,21.92
2019-06-27T06:30:44.010Z,22.44
2019-06-27T06:33:01.514Z,21.82
2019-06-27T06:35:28.220Z,22.42
2019-06-27T06:37:54.910Z,22.95
2019-06-27T06:40:21.667Z,23.42
2019-06-27T06:42:48.527Z,22.55
2019-06-27T06:45:15.822Z,22.97
2019-06-27T06:47:42.646Z,23.55
2019-06-27T06:50:09.660Z,22.22
2019-06-27T06:52:36.257Z,22.47
2019-06-27T06:55:03.254Z,22.75
2019-06-27T06:57:30.052Z,22.80
2019-06-27T06:59:56.686Z,22.95
2019-06-27T07:02:23.627Z,22.66
2019-06-27T07:04:50.269Z,22.42
2019-06-27T07:07:16.847Z,24.42
2019-06-27T07:09:43.550Z,23.18
2019-06-27T07:12:10.262Z,22.83
2019-06-27T07:14:37.153Z,22.28
2019-06-27T07:17:05.095Z,23.16
2019-06-27T07:19:31.729Z,23.33
2019-06-27T07:21:59.120Z,23.00
2019-06-27T07:24:26.023Z,24.04
2019-06-27T07:26:52.701Z,23.40
2019-06-27T07:29:19.331Z,22.86
2019-06-27T07:31:45.952Z,21.85
2019-06-27T07:34:12.731Z,23.05
2019-06-27T07:36:39.307Z,23.15
2019-06-27T07:39:06.962Z,23.69
2019-06-27T07:41:33.635Z,23.07
2019-06-27T07:44:00.250Z,23.63
2019-06-27T07:46:27.505Z,23.53
2019-06-27T07:48:54.344Z,24.01
2019-06-27T07:51:21.335Z,24.17
2019-06-27T07:53:48.069Z,24.74
2019-06-27T07:56:14.644Z,24.37
2019-06-27T07:58:42.401Z,25.22
2019-06-27T08:01:10.111Z,23.12
2019-06-27T08:03:36.761Z,23.03
2019-06-27T08:06:03.520Z,22.40
2019-06-27T08:08:30.120Z,22.08
2019-06-27T08:10:56.809Z,23.92
2019-06-27T08:13:23.856Z,23.55
2019-06-27T08:15:50.532Z,22.94
2019-06-27T08:18:17.109Z,22.91
2019-06-27T08:20:43.884Z,23.22
2019-06-27T08:23:10.527Z,22.79
2019-06-27T08:25:37.221Z,22.89
2019-06-27T08:28:03.799Z,23.48
2019-06-27T08:30:30.575Z,22.03
2019-06-27T08:32:57.236Z,23.10
2019-06-27T08:35:24.023Z,23.07
2019-06-27T08:37:50.722Z,23.41
2019-06-27T08:40:19.457Z,23.58
2019-06-27T08:42:46.114Z,24.03
2019-06-27T08:45:13.077Z,24.13
2019-06-27T08:47:39.793Z,23.66
2019-06-27T08:50:07.192Z,24.27
2019-06-27T08:52:33.860Z,22.97
2019-06-27T08:55:00.601Z,23.18
2019-06-27T08:57:27.237Z,23.68
2019-06-27T08:59:53.980Z,23.48
2019-06-27T09:02:20.604Z,23.32
2019-06-27T09:04:47.302Z,23.51
2019-06-27T09:07:13.979Z,23.47
2019-06-27T09:09:40.691Z,23.95
2019-06-27T09:12:08.586Z,22.57
2019-06-27T09:14:36.362Z,23.27
2019-06-27T09:17:03.137Z,22.52
2019-06-27T09:19:30.901Z,23.82
2019-06-27T09:21:57.646Z,23.78
2019-06-27T09:24:24.751Z,24.04
2019-06-27T09:26:51.552Z,23.23
2019-06-27T09:29:18.359Z,22.88
2019-06-27T09:31:44.988Z,24.04
2019-06-27T09:34:11.592Z,23.68
2019-06-27T09:36:38.261Z,24.47
2019-06-27T09:39:05.418Z,25.95
2019-06-27T09:41:32.524Z,26.75
2019-06-27T09:44:00.089Z,25.20
2019-06-27T09:46:26.899Z,24.40
2019-06-27T09:48:53.561Z,24.06
2019-06-27T09:51:20.392Z,24.68
2019-06-27T09:53:47.040Z,24.77
2019-06-27T09:56:13.795Z,25.80
2019-06-27T09:58:40.609Z,26.76
2019-06-27T10:01:07.608Z,25.70
2019-06-27T10:03:34.279Z,26.06
2019-06-27T10:06:01.083Z,26.76
2019-06-27T10:08:27.695Z,25.73
2019-06-27T10:10:54.389Z,26.32
2019-06-27T10:13:21.005Z,24.14
2019-06-27T10:15:47.615Z,24.22
2019-06-27T10:18:14.333Z,24.03
2019-06-27T10:20:41.152Z,26.28
2019-06-27T10:23:07.814Z,26.68
2019-06-27T10:25:38.087Z,26.64
2019-06-27T10:28:03.395Z,25.87
2019-06-27T10:30:30.163Z,26.54
2019-06-27T10:32:59.678Z,24.76
2019-06-27T10:35:25.409Z,25.93
2019-06-27T10:37:53.340Z,25.49
2019-06-27T10:40:20.326Z,25.93
2019-06-27T10:42:47.176Z,28.20
2019-06-27T10:45:14.202Z,32.74
2019-06-27T10:47:40.872Z,31.66
2019-06-27T10:50:09.432Z,28.59
2019-06-27T10:52:36.028Z,26.97
2019-06-27T10:57:35.333Z,26.90
2019-06-27T11:00:02.236Z,25.44
2019-06-27T11:02:29.065Z,26.17
2019-06-27T11:04:56.517Z,27.45
2019-06-27T11:07:24.417Z,27.99
2019-06-27T11:09:51.358Z,27.55
2019-06-27T11:12:17.929Z,26.52
2019-06-27T11:14:58.201Z,26.70
2019-06-27T11:17:13.109Z,27.27
2019-06-27T11:19:52.032Z,29.68
2019-06-27T11:22:09.505Z,28.84
2019-06-27T11:24:36.183Z,29.91
2019-06-27T11:27:02.987Z,28.33
2019-06-27T11:29:29.717Z,27.87
2019-06-27T11:31:56.500Z,26.66
2019-06-27T11:34:23.510Z,27.50
2019-06-27T11:36:50.192Z,27.83
2019-06-27T11:39:16.820Z,27.33
2019-06-27T11:41:44.562Z,29.56
2019-06-27T11:44:11.326Z,31.51
2019-06-27T11:46:37.972Z,30.13
2019-06-27T11:49:04.764Z,29.30
2019-06-27T11:51:31.456Z,28.88
2019-06-27T11:53:58.069Z,28.02
2019-06-27T11:56:24.695Z,28.20
2019-06-27T11:58:51.345Z,30.01
2019-06-27T12:01:18.060Z,29.03
2019-06-27T12:03:49.254Z,27.13
2019-06-27T12:06:13.486Z,26.40
2019-06-27T12:08:40.298Z,26.56
2019-06-27T12:11:06.927Z,27.55
2019-06-27T12:13:33.496Z,27.87
2019-06-27T12:16:01.157Z,28.23
2019-06-27T12:18:27.815Z,27.15
2019-06-27T12:20:54.502Z,26.10
2019-06-27T12:23:21.317Z,27.27
2019-06-27T12:25:47.996Z,25.81
2019-06-27T12:28:14.582Z,26.88
2019-06-27T12:30:41.156Z,26.85
2019-06-27T12:33:07.740Z,25.31
2019-06-27T12:35:35.448Z,24.88
2019-06-27T12:38:02.072Z,25.17
2019-06-27T12:40:28.857Z,25.24
2019-06-27T12:42:55.560Z,25.11
2019-06-27T12:45:22.314Z,25.35
2019-06-27T12:47:49.034Z,25.29
2019-06-27T12:50:15.732Z,25.27
2019-06-27T12:52:42.551Z,25.02
2019-06-27T12:55:10.031Z,24.23
2019-06-27T12:57:36.923Z,25.27
2019-06-27T13:00:08.071Z,25.17
2019-06-27T13:02:32.609Z,25.03
2019-06-27T13:04:59.275Z,25.07
2019-06-27T13:07:26.110Z,25.35
2019-06-27T13:09:52.732Z,24.91
2019-06-27T13:12:19.626Z,25.45
2019-06-27T13:14:47.543Z,26.38
2019-06-27T13:17:14.166Z,25.63
2019-06-27T13:19:41.800Z,23.95
2019-06-27T13:22:08.593Z,24.65
2019-06-27T13:24:35.226Z,24.55
2019-06-27T13:27:01.944Z,25.45
2019-06-27T13:29:28.626Z,26.16
2019-06-27T13:31:55.501Z,26.04
2019-06-27T13:34:39.091Z,26.42
2019-06-27T13:36:51.165Z,25.29
2019-06-27T13:39:17.962Z,24.81
2019-06-27T13:41:45.717Z,24.88
2019-06-27T13:44:12.400Z,25.46
2019-06-27T13:46:39.218Z,24.67
2019-06-27T13:49:05.773Z,23.85
2019-06-27T13:51:32.350Z,24.19
2019-06-27T13:53:59.196Z,24.64
2019-06-27T13:56:25.804Z,25.72
2019-06-27T13:58:53.639Z,26.17
2019-06-27T14:01:21.595Z,24.98
2019-06-27T14:03:49.949Z,25.19
2019-06-27T14:06:16.907Z,25.82
2019-06-27T14:08:43.625Z,24.99
2019-06-27T14:11:10.259Z,24.45
2019-06-27T14:13:36.955Z,25.19
2019-06-27T14:16:05.993Z,25.08
2019-06-27T14:18:32.304Z,25.22
2019-06-27T14:20:59.091Z,25.19
2019-06-27T14:23:25.721Z,25.45
2019-06-27T14:25:52.468Z,24.95
2019-06-27T14:28:19.045Z,25.97
2019-06-27T14:30:45.694Z,25.37
2019-06-27T14:33:12.398Z,25.76
2019-06-27T14:35:39.086Z,25.29
2019-06-27T14:38:05.987Z,24.45
2019-06-27T14:40:33.110Z,24.51
2019-06-27T14:43:00.041Z,24.59
2019-06-27T14:45:26.766Z,24.74
2019-06-27T14:47:53.425Z,24.91
2019-06-27T14:50:20.408Z,24.93
2019-06-27T14:52:47.340Z,25.30
2019-06-27T14:55:14.040Z,24.97
2019-06-27T14:57:40.660Z,24.81
2019-06-27T15:00:08.060Z,24.76
2019-06-27T15:02:34.835Z,24.84
2019-06-27T15:05:01.777Z,25.00
2019-06-27T15:07:28.851Z,24.72
2019-06-27T15:09:55.500Z,26.08
2019-06-27T15:12:22.254Z,26.19
2019-06-27T15:14:50.664Z,24.77
2019-06-27T15:17:17.738Z,26.15
2019-06-27T15:19:44.443Z,26.16
2019-06-27T15:22:11.112Z,25.56
2019-06-27T15:24:37.867Z,25.19
2019-06-27T15:27:04.849Z,25.73
2019-06-27T15:29:31.513Z,25.45
2019-06-27T15:31:58.372Z,25.69
2019-06-27T15:34:24.987Z,25.29
2019-06-27T15:36:51.646Z,25.81
2019-06-27T15:39:18.438Z,25.55
2019-06-27T15:41:45.083Z,25.40
2019-06-27T15:44:11.725Z,25.36
2019-06-27T15:46:38.538Z,25.01
2019-06-27T15:49:05.369Z,24.48
2019-06-27T15:51:32.079Z,23.79
2019-06-27T15:53:58.802Z,23.48
2019-06-27T15:56:25.525Z,24.49
2019-06-27T15:58:52.200Z,24.04
2019-06-27T16:01:20.199Z,23.75
2019-06-27T16:03:47.134Z,24.25
2019-06-27T16:06:15.070Z,25.69
2019-06-27T16:08:41.953Z,25.83
2019-06-27T16:11:08.703Z,24.10
2019-06-27T16:13:35.654Z,24.92
2019-06-27T16:16:02.283Z,24.85
2019-06-27T16:18:28.946Z,25.15
2019-06-27T16:20:55.646Z,24.44
2019-06-27T16:23:22.337Z,24.04
2019-06-27T16:25:49.019Z,24.44
2019-06-27T16:28:15.597Z,24.15
2019-06-27T16:30:42.626Z,25.29
2019-06-27T16:33:09.283Z,24.54
2019-06-27T16:35:36.153Z,24.80
2019-06-27T16:38:03.034Z,23.83
2019-06-27T16:40:29.643Z,23.46
2019-06-27T16:42:57.566Z,23.35
2019-06-27T16:45:24.263Z,23.48
2019-06-27T16:47:50.944Z,23.66
2019-06-27T16:50:18.399Z,23.17
2019-06-27T16:52:45.106Z,23.49
2019-06-27T16:55:11.971Z,23.23
2019-06-27T16:57:38.642Z,23.83
2019-06-27T17:00:05.456Z,22.84
2019-06-27T17:02:33.530Z,22.53
2019-06-27T17:05:00.211Z,23.18
2019-06-27T17:07:26.812Z,23.85
2019-06-27T17:09:53.542Z,24.14
2019-06-27T17:12:20.140Z,22.52
2019-06-27T17:14:47.178Z,23.15
2019-06-27T17:17:13.802Z,22.25
2019-06-27T17:19:41.575Z,22.80
2019-06-27T17:22:08.298Z,23.39
2019-06-27T17:24:35.998Z,24.09
2019-06-27T17:27:02.839Z,23.60
2019-06-27T17:29:29.504Z,23.35
2019-06-27T17:31:56.182Z,23.78
2019-06-27T17:34:23.782Z,23.50
2019-06-27T17:36:57.603Z,24.18
2019-06-27T17:39:19.362Z,23.41
2019-06-27T17:41:46.227Z,23.01
2019-06-27T17:44:12.788Z,22.30
2019-06-27T17:46:39.374Z,22.71
2019-06-27T17:49:06.284Z,22.40
2019-06-27T17:51:33.011Z,22.18
2019-06-27T17:53:59.621Z,21.77
2019-06-27T17:56:26.325Z,22.21
2019-06-27T17:58:53.120Z,22.86
2019-06-27T18:01:19.803Z,23.33
2019-06-27T18:03:46.501Z,23.21
2019-06-27T18:06:13.146Z,22.29
2019-06-27T18:08:39.894Z,21.94
2019-06-27T18:11:06.702Z,21.36
2019-06-27T18:13:33.473Z,21.02
2019-06-27T18:16:00.476Z,21.31
2019-06-27T18:18:27.141Z,20.79
2019-06-27T18:20:56.180Z,20.68
2019-06-27T18:23:23.164Z,21.22
2019-06-27T18:25:52.035Z,21.27
2019-06-27T18:28:18.830Z,21.29
2019-06-27T18:30:45.517Z,21.32
2019-06-27T18:33:12.153Z,21.47
2019-06-27T18:35:38.883Z,21.54
2019-06-27T18:38:05.660Z,21.98
2019-06-27T18:40:32.338Z,21.03
2019-06-27T18:42:58.938Z,20.35
2019-06-27T18:45:25.653Z,21.03
2019-06-27T18:47:52.330Z,21.12
2019-06-27T18:50:19.240Z,20.92
2019-06-27T18:52:45.898Z,21.16
2019-06-27T18:55:12.622Z,21.24
2019-06-27T18:57:39.259Z,21.53
2019-06-27T19:00:07.295Z,21.03
2019-06-27T19:02:33.915Z,21.04
2019-06-27T19:05:00.614Z,21.14
2019-06-27T19:07:27.508Z,20.19
2019-06-27T19:09:54.082Z,20.92
2019-06-27T19:12:20.808Z,20.86
2019-06-27T19:14:47.497Z,21.39
2019-06-27T19:17:14.349Z,20.64
2019-06-27T19:19:43.496Z,20.35
2019-06-27T19:22:29.844Z,20.39
2019-06-27T19:25:10.362Z,20.17
2019-06-27T19:27:37.033Z,20.64
2019-06-27T19:30:04.609Z,20.06
2019-06-27T19:32:31.482Z,20.05
2019-06-27T19:34:58.249Z,20.07
2019-06-27T19:37:24.985Z,21.06
2019-06-27T19:39:51.713Z,21.02
2019-06-27T19:42:18.606Z,20.51
2019-06-27T19:44:45.615Z,20.76
2019-06-27T19:47:12.305Z,20.95
2019-06-27T19:49:38.942Z,20.50
2019-06-27T19:52:05.734Z,20.66
2019-06-27T19:54:32.531Z,20.22
2019-06-27T19:56:59.234Z,19.81
2019-06-27T19:59:25.968Z,19.41
2019-06-27T20:01:52.661Z,19.99
2019-06-27T20:04:19.302Z,20.21
2019-06-27T20:06:46.059Z,19.68
2019-06-27T20:09:12.640Z,20.55
2019-06-27T20:11:39.731Z,20.39
2019-06-27T20:14:06.337Z,20.12
2019-06-27T20:16:33.631Z,20.05
2019-06-27T20:19:00.232Z,20.10
2019-06-27T20:21:26.987Z,20.02
2019-06-27T20:23:53.647Z,19.59
2019-06-27T20:26:20.522Z,19.75
2019-06-27T20:28:47.110Z,20.42
2019-06-27T20:31:14.687Z,20.61
2019-06-27T20:33:41.304Z,20.35
2019-06-27T20:36:08.004Z,20.67
2019-06-27T20:38:35.501Z,20.99
2019-06-27T20:41:02.365Z,20.32
2019-06-27T20:43:28.989Z,20.19
2019-06-27T20:45:55.884Z,20.33
2019-06-27T20:48:22.559Z,19.91
2019-06-27T20:50:49.461Z,19.69
2019-06-27T20:53:16.048Z,19.43
2019-06-27T20:55:42.923Z,19.68
2019-06-27T20:58:09.670Z,19.36
2019-06-27T21:00:36.362Z,19.99
2019-06-27T21:03:03.627Z,20.12
2019-06-27T21:05:30.613Z,19.97
2019-06-27T21:07:57.275Z,20.04
2019-06-27T21:10:24.041Z,20.32
2019-06-27T21:12:50.681Z,19.59
2019-06-27T21:15:17.506Z,20.24
2019-06-27T21:17:44.592Z,20.02
2019-06-27T21:20:11.430Z,19.53
2019-06-27T21:22:38.008Z,19.04
2019-06-27T21:25:05.062Z,19.19
2019-06-27T21:27:31.623Z,19.29
2019-06-27T21:29:58.324Z,18.90
2019-06-27T21:32:31.321Z,20.13
2019-06-27T21:34:53.582Z,20.20
2019-06-27T21:37:20.491Z,19.50
2019-06-27T21:39:47.372Z,19.05
2019-06-27T21:42:14.095Z,19.00
2019-06-27T21:44:41.120Z,18.80
2019-06-27T21:47:07.999Z,19.02
2019-06-27T21:49:34.706Z,18.79
2019-06-27T21:52:01.448Z,19.66
2019-06-27T21:54:28.120Z,19.93
2019-06-27T21:56:54.737Z,19.56
2019-06-27T21:59:21.308Z,19.39
2019-06-27T22:01:48.078Z,19.26
2019-06-27T22:04:14.660Z,18.89
2019-06-27T22:06:41.349Z,19.46
2019-06-27T22:09:23.330Z,18.98
2019-06-27T22:11:37.114Z,18.92
2019-06-27T22:14:03.901Z,19.28
2019-06-27T22:16:30.688Z,19.36
2019-06-27T22:18:57.269Z,18.89
2019-06-27T22:21:24.046Z,18.84
2019-06-27T22:23:50.993Z,19.49
2019-06-27T22:26:17.661Z,18.99
2019-06-27T22:28:44.364Z,19.25
2019-06-27T22:31:10.944Z,18.85
2019-06-27T22:33:37.712Z,18.77
2019-06-27T22:36:04.325Z,19.37
2019-06-27T22:38:48.998Z,18.88
2019-06-27T22:41:33.693Z,19.49
2019-06-27T22:44:18.602Z,19.16
2019-06-27T22:47:03.427Z,19.11
2019-06-27T22:49:30.578Z,19.15
2019-06-27T22:52:16.060Z,19.32
2019-06-27T22:54:44.560Z,18.18
2019-06-27T22:57:11.388Z,18.64
2019-06-27T22:59:37.965Z,19.27
2019-06-27T23:02:04.697Z,19.14
2019-06-27T23:04:31.481Z,18.71
2019-06-27T23:06:58.354Z,19.01
2019-06-27T23:09:25.267Z,19.32
2019-06-27T23:11:52.164Z,19.44
2019-06-27T23:14:18.813Z,19.53
2019-06-27T23:16:45.487Z,18.85
2019-06-27T23:19:12.091Z,19.23
2019-06-27T23:21:38.745Z,19.49
2019-06-27T23:24:05.415Z,19.71
2019-06-27T23:26:32.086Z,19.66
2019-06-27T23:28:58.787Z,19.51
2019-06-27T23:31:25.561Z,20.69
2019-06-27T23:33:52.148Z,20.40
2019-06-27T23:36:18.799Z,20.27
2019-06-27T23:38:45.488Z,19.81
2019-06-27T23:41:12.420Z,20.02
2019-06-27T23:43:39.159Z,19.78
2019-06-27T23:46:08.483Z,19.40
2019-06-27T23:48:35.254Z,19.52
2019-06-27T23:51:01.860Z,19.36
2019-06-27T23:53:28.434Z,20.01
2019-06-27T23:55:55.089Z,19.48
2019-06-27T23:58:21.744Z,19.25
